createdAt,value
2022-11-19T00:02:46.384Z,4.60
2022-11-19T00:09:50.034Z,4.60
2022-11-19T00:12:55.066Z,4.50
2022-11-19T00:24:10.985Z,4.50
2022-11-19T00:26:39.107Z,4.50
2022-11-19T00:29:17.761Z,4.50
2022-11-19T00:36:10.879Z,4.50
2022-11-19T00:38:44.029Z,4.40
2022-11-19T00:41:12.678Z,4.30
2022-11-19T00:43:49.003Z,4.30
2022-11-19T00:46:24.928Z,4.30
2022-11-19T00:49:04.472Z,4.30
2022-11-19T00:51:32.521Z,4.20
2022-11-19T00:58:36.718Z,4.30
2022-11-19T01:05:28.505Z,4.30
2022-11-19T01:07:56.371Z,4.20
2022-11-19T01:14:53.035Z,4.30
2022-11-19T01:17:54.017Z,4.30
2022-11-19T01:20:23.649Z,4.30
2022-11-19T01:27:27.818Z,4.20
2022-11-19T01:30:08.552Z,4.10
2022-11-19T01:37:14.428Z,4.10
2022-11-19T01:40:45.480Z,4.00
2022-11-19T01:43:13.736Z,4.00
2022-11-19T01:50:18.591Z,3.90
2022-11-19T01:57:11.448Z,3.90
2022-11-19T02:00:48.823Z,4.00
2022-11-19T02:03:47.024Z,4.00
2022-11-19T02:06:15.179Z,3.90
2022-11-19T02:17:39.806Z,3.90
2022-11-19T02:25:29.444Z,4.00
2022-11-19T02:28:52.314Z,4.10
2022-11-19T02:31:55.542Z,4.10
2022-11-19T02:39:36.781Z,4.20
2022-11-19T02:46:41.198Z,4.40
2022-11-19T02:54:41.943Z,4.40
2022-11-19T02:57:11.151Z,4.40
2022-11-19T03:04:55.173Z,4.40
2022-11-19T03:11:54.327Z,4.40
2022-11-19T03:14:53.633Z,4.40
2022-11-19T03:25:44.529Z,4.50
2022-11-19T03:28:23.726Z,4.60
2022-11-19T03:30:52.780Z,4.60
2022-11-19T03:33:39.256Z,4.70
2022-11-19T03:36:17.056Z,4.70
2022-11-19T03:38:52.744Z,4.70
2022-11-19T03:42:06.660Z,4.70
2022-11-19T03:48:59.233Z,4.70
2022-11-19T03:51:49.999Z,4.70
2022-11-19T03:54:18.440Z,4.70
2022-11-19T03:56:48.942Z,4.70
2022-11-19T03:59:17.516Z,4.80
2022-11-19T04:01:49.771Z,4.80
2022-11-19T04:04:50.753Z,4.80
2022-11-19T04:07:30.041Z,4.80
2022-11-19T04:10:15.765Z,4.80
2022-11-19T04:12:45.330Z,4.80
2022-11-19T04:15:16.541Z,4.90
2022-11-19T04:17:44.944Z,4.90
2022-11-19T04:20:20.994Z,4.90
2022-11-19T04:22:51.900Z,4.90
2022-11-19T04:26:15.594Z,5.00
2022-11-19T04:28:43.570Z,5.00
2022-11-19T04:35:04.185Z,5.10
2022-11-19T04:38:27.279Z,5.10
2022-11-19T04:40:57.069Z,5.10
2022-11-19T04:43:26.761Z,5.10
2022-11-19T04:45:54.955Z,5.10
2022-11-19T04:48:23.000Z,5.10
2022-11-19T04:50:52.918Z,5.10
2022-11-19T04:53:22.835Z,5.10
2022-11-19T04:55:50.699Z,5.10
2022-11-19T04:58:20.276Z,5.10
2022-11-19T05:00:49.950Z,5.00
2022-11-19T05:03:17.122Z,5.00
2022-11-19T05:05:47.311Z,5.00
2022-11-19T05:08:19.189Z,5.00
2022-11-19T05:10:47.603Z,5.00
2022-11-19T05:17:41.490Z,5.00
2022-11-19T05:20:11.300Z,5.00
2022-11-19T05:22:39.630Z,5.00
2022-11-19T05:25:09.534Z,5.00
2022-11-19T05:27:37.959Z,5.00
2022-11-19T05:30:06.818Z,5.00
2022-11-19T05:32:36.792Z,5.00
2022-11-19T05:35:06.723Z,5.10
2022-11-19T05:37:34.689Z,5.00
2022-11-19T05:40:08.366Z,5.00
2022-11-19T05:42:36.537Z,5.00
2022-11-19T05:45:06.956Z,5.00
2022-11-19T05:47:34.990Z,4.90
2022-11-19T05:50:03.426Z,4.90
2022-11-19T05:52:42.298Z,4.90
2022-11-19T05:55:10.409Z,4.90
2022-11-19T05:57:38.741Z,4.90
2022-11-19T06:00:07.972Z,4.90
2022-11-19T06:02:39.851Z,4.90
2022-11-19T06:05:11.347Z,4.90
2022-11-19T06:07:39.630Z,4.90
2022-11-19T06:10:08.293Z,4.90
2022-11-19T06:12:39.239Z,4.90
2022-11-19T06:15:11.222Z,4.80
2022-11-19T06:17:39.430Z,4.80
2022-11-19T06:20:11.035Z,4.80
2022-11-19T06:22:40.050Z,4.90
2022-11-19T06:25:09.831Z,4.80
2022-11-19T06:27:37.936Z,4.90
2022-11-19T06:30:30.096Z,4.80
2022-11-19T06:32:58.150Z,4.80
2022-11-19T06:35:26.382Z,4.80
2022-11-19T06:37:56.218Z,4.80
2022-11-19T06:40:24.615Z,4.80
2022-11-19T06:42:57.356Z,4.80
2022-11-19T06:45:26.002Z,4.80
2022-11-19T06:47:54.258Z,4.80
2022-11-19T06:50:36.428Z,4.80
2022-11-19T06:53:12.789Z,4.80
2022-11-19T06:55:40.779Z,4.80
2022-11-19T06:58:09.478Z,4.80
2022-11-19T07:00:39.389Z,4.80
2022-11-19T07:03:06.249Z,4.90
2022-11-19T07:05:38.468Z,4.90
2022-11-19T07:08:10.588Z,4.90
2022-11-19T07:10:40.156Z,4.90
2022-11-19T07:13:08.197Z,5.00
2022-11-19T07:15:40.242Z,5.00
2022-11-19T07:18:08.804Z,5.00
2022-11-19T07:20:37.315Z,5.00
2022-11-19T07:23:10.629Z,5.00
2022-11-19T07:25:39.143Z,5.10
2022-11-19T07:28:08.773Z,5.10
2022-11-19T07:30:40.717Z,5.10
2022-11-19T07:33:08.812Z,5.20
2022-11-19T07:35:37.012Z,5.20
2022-11-19T07:38:05.932Z,5.20
2022-11-19T07:40:33.925Z,5.10
2022-11-19T07:43:02.683Z,5.10
2022-11-19T07:45:37.930Z,5.20
2022-11-19T07:48:08.892Z,5.30
2022-11-19T07:50:40.461Z,5.30
2022-11-19T07:53:09.287Z,5.40
2022-11-19T07:55:37.528Z,5.40
2022-11-19T07:58:05.585Z,5.50
2022-11-19T08:00:36.531Z,5.50
2022-11-19T08:03:03.397Z,5.60
2022-11-19T08:05:33.021Z,5.60
2022-11-19T08:08:04.666Z,5.60
2022-11-19T08:10:33.017Z,5.60
2022-11-19T08:13:03.327Z,5.60
2022-11-19T08:15:32.578Z,5.60
2022-11-19T08:18:12.701Z,5.60
2022-11-19T08:20:45.223Z,5.70
2022-11-19T08:23:14.447Z,5.70
2022-11-19T08:25:44.312Z,5.80
2022-11-19T08:28:12.852Z,5.90
2022-11-19T08:30:41.760Z,6.00
2022-11-19T08:33:09.749Z,6.20
2022-11-19T08:35:39.688Z,6.40
2022-11-19T08:38:10.330Z,6.40
2022-11-19T08:40:38.484Z,6.40
2022-11-19T08:43:06.401Z,6.30
2022-11-19T08:45:39.666Z,6.10
2022-11-19T08:48:13.421Z,6.00
2022-11-19T08:50:43.632Z,5.80
2022-11-19T08:53:11.956Z,5.80
2022-11-19T09:00:06.397Z,5.50
2022-11-19T09:02:34.718Z,5.30
2022-11-19T09:05:03.030Z,5.20
2022-11-19T09:07:31.797Z,5.20
2022-11-19T09:10:00.718Z,5.10
2022-11-19T09:12:32.322Z,5.10
2022-11-19T09:15:00.334Z,5.10
2022-11-19T09:17:32.770Z,5.10
2022-11-19T09:20:00.834Z,5.20
2022-11-19T09:22:31.758Z,5.30
2022-11-19T09:24:59.619Z,5.50
2022-11-19T09:28:00.626Z,5.70
2022-11-19T09:30:30.633Z,5.90
2022-11-19T09:33:00.833Z,6.00
2022-11-19T09:35:29.658Z,6.00
2022-11-19T09:37:57.670Z,6.10
2022-11-19T09:40:25.483Z,6.10
2022-11-19T09:43:22.901Z,6.10
2022-11-19T09:46:12.694Z,6.00
2022-11-19T09:48:42.671Z,6.10
2022-11-19T09:51:16.126Z,6.10
2022-11-19T09:53:54.789Z,6.20
2022-11-19T09:56:40.095Z,6.30
2022-11-19T09:59:37.399Z,6.40
2022-11-19T10:02:21.954Z,6.50
2022-11-19T10:04:51.289Z,6.60
2022-11-19T10:07:44.763Z,6.70
2022-11-19T10:10:26.574Z,6.70
2022-11-19T10:13:19.760Z,6.80
2022-11-19T10:16:08.455Z,7.00
2022-11-19T10:18:53.755Z,7.20
2022-11-19T10:21:45.305Z,7.40
2022-11-19T10:24:24.781Z,7.60
2022-11-19T10:27:10.419Z,7.60
2022-11-19T10:29:40.390Z,7.40
2022-11-19T10:32:28.923Z,7.30
2022-11-19T10:35:06.625Z,7.30
2022-11-19T10:37:46.601Z,7.20
2022-11-19T10:40:19.552Z,7.20
2022-11-19T10:43:05.048Z,7.20
2022-11-19T10:45:33.459Z,7.30
2022-11-19T10:48:21.380Z,7.40
2022-11-19T10:50:50.682Z,7.50
2022-11-19T10:53:36.198Z,7.60
2022-11-19T10:56:37.531Z,7.70
2022-11-19T10:59:13.536Z,7.80
2022-11-19T11:01:44.618Z,8.20
2022-11-19T11:04:23.615Z,8.30
2022-11-19T11:06:53.568Z,8.20
2022-11-19T11:09:40.034Z,8.30
2022-11-19T11:12:45.413Z,8.40
2022-11-19T11:15:26.782Z,8.70
2022-11-19T11:18:09.739Z,8.90
2022-11-19T11:20:39.421Z,9.20
2022-11-19T11:23:27.803Z,9.20
2022-11-19T11:26:11.527Z,9.40
2022-11-19T11:28:56.228Z,9.70
2022-11-19T11:31:42.692Z,9.80
2022-11-19T11:34:43.726Z,9.90
2022-11-19T11:37:13.022Z,10.20
2022-11-19T11:39:44.285Z,10.60
2022-11-19T11:42:18.440Z,10.70
2022-11-19T11:44:53.461Z,10.50
2022-11-19T11:47:26.604Z,9.80
2022-11-19T11:50:08.180Z,9.90
2022-11-19T11:52:55.703Z,9.60
2022-11-19T11:55:28.447Z,9.00
2022-11-19T11:58:03.548Z,8.70
2022-11-19T12:00:43.410Z,8.50
2022-11-19T12:03:16.189Z,9.00
2022-11-19T12:05:51.713Z,9.40
2022-11-19T12:09:03.520Z,9.60
2022-11-19T12:11:56.088Z,9.90
2022-11-19T12:14:45.327Z,9.70
2022-11-19T12:17:34.018Z,10.30
2022-11-19T12:20:34.870Z,11.10
2022-11-19T12:23:35.624Z,11.60
2022-11-19T12:26:14.313Z,12.40
2022-11-19T12:29:19.568Z,13.30
2022-11-19T12:31:58.106Z,13.50
2022-11-19T12:34:45.341Z,12.70
2022-11-19T12:37:39.026Z,11.40
2022-11-19T12:40:36.608Z,10.30
2022-11-19T12:43:43.663Z,9.60
2022-11-19T12:46:25.624Z,8.90
2022-11-19T12:49:26.538Z,8.70
2022-11-19T12:52:12.233Z,8.40
2022-11-19T12:55:12.642Z,8.00
2022-11-19T12:58:15.510Z,7.80
2022-11-19T13:00:52.315Z,7.70
2022-11-19T13:03:29.697Z,7.60
2022-11-19T13:06:18.302Z,7.50
2022-11-19T13:09:09.261Z,7.40
2022-11-19T13:11:44.603Z,7.40
2022-11-19T13:14:38.332Z,7.70
2022-11-19T13:17:18.966Z,9.40
2022-11-19T13:19:55.516Z,10.70
2022-11-19T13:22:36.354Z,11.20
2022-11-19T13:25:32.697Z,11.60
2022-11-19T13:28:05.465Z,12.00
2022-11-19T13:30:34.752Z,11.80
2022-11-19T13:33:22.741Z,11.50
2022-11-19T13:36:00.314Z,11.40
2022-11-19T13:38:47.186Z,11.80
2022-11-19T13:41:30.843Z,12.30
2022-11-19T13:44:17.984Z,12.50
2022-11-19T13:46:54.907Z,12.40
2022-11-19T13:49:43.667Z,12.30
2022-11-19T13:52:20.398Z,12.80
2022-11-19T13:54:48.901Z,13.10
2022-11-19T13:57:34.938Z,12.50
2022-11-19T14:00:08.766Z,12.30
2022-11-19T14:03:01.127Z,12.20
2022-11-19T14:05:49.711Z,11.80
2022-11-19T14:08:53.353Z,11.80
2022-11-19T14:11:50.106Z,12.30
2022-11-19T14:15:09.249Z,12.80
2022-11-19T14:18:35.089Z,12.50
2022-11-19T14:21:45.320Z,12.50
2022-11-19T14:24:46.034Z,12.90
2022-11-19T14:27:29.773Z,12.10
2022-11-19T14:30:12.318Z,11.80
2022-11-19T14:32:47.324Z,11.50
2022-11-19T14:35:26.358Z,11.30
2022-11-19T14:38:24.773Z,11.00
2022-11-19T14:41:03.795Z,10.40
2022-11-19T14:44:06.717Z,10.00
2022-11-19T14:46:33.736Z,9.30
2022-11-19T14:49:04.941Z,8.60
2022-11-19T14:51:39.022Z,8.20
2022-11-19T14:54:31.550Z,7.80
2022-11-19T14:57:37.653Z,7.60
2022-11-19T15:00:14.247Z,7.50
2022-11-19T15:02:53.477Z,7.30
2022-11-19T15:05:26.964Z,7.10
2022-11-19T15:08:24.217Z,7.00
2022-11-19T15:11:10.829Z,6.80
2022-11-19T15:13:46.624Z,6.70
2022-11-19T15:16:27.234Z,6.70
2022-11-19T15:19:45.444Z,6.60
2022-11-19T15:22:29.871Z,6.50
2022-11-19T15:25:12.622Z,6.40
2022-11-19T15:28:14.927Z,6.20
2022-11-19T15:30:54.484Z,6.10
2022-11-19T15:34:02.836Z,6.00
2022-11-19T15:36:40.145Z,5.90
2022-11-19T15:39:47.360Z,5.90
2022-11-19T15:42:19.490Z,5.90
2022-11-19T15:45:11.574Z,5.90
2022-11-19T15:47:47.233Z,5.80
2022-11-19T15:50:23.839Z,5.80
2022-11-19T15:53:19.234Z,5.70
2022-11-19T15:55:58.333Z,5.70
2022-11-19T15:58:47.625Z,5.60
2022-11-19T16:01:17.229Z,5.50
2022-11-19T16:03:45.584Z,5.60
2022-11-19T16:06:20.860Z,5.60
2022-11-19T16:08:56.051Z,5.60
2022-11-19T16:11:50.488Z,5.60
2022-11-19T16:14:40.059Z,5.60
2022-11-19T16:17:39.958Z,5.70
2022-11-19T16:20:13.228Z,5.70
2022-11-19T16:22:40.407Z,5.70
2022-11-19T16:25:22.591Z,5.70
2022-11-19T16:27:49.692Z,5.80
2022-11-19T16:30:20.064Z,5.90
2022-11-19T16:32:48.145Z,5.90
2022-11-19T16:35:27.788Z,5.90
2022-11-19T16:37:56.899Z,5.90
2022-11-19T16:40:25.932Z,6.00
2022-11-19T16:42:59.343Z,6.00
2022-11-19T16:45:32.448Z,6.00
2022-11-19T16:48:05.004Z,6.00
2022-11-19T16:50:43.785Z,6.00
2022-11-19T16:53:46.646Z,6.00
2022-11-19T16:56:17.002Z,6.00
2022-11-19T16:58:46.006Z,6.10
2022-11-19T17:01:18.799Z,6.00
2022-11-19T17:03:46.971Z,6.10
2022-11-19T17:06:24.116Z,6.00
2022-11-19T17:09:03.072Z,6.00
2022-11-19T17:12:13.113Z,6.00
2022-11-19T17:14:39.917Z,6.00
2022-11-19T17:17:25.416Z,5.90
2022-11-19T17:19:54.374Z,5.90
2022-11-19T17:22:27.148Z,5.90
2022-11-19T17:24:57.404Z,5.90
2022-11-19T17:27:37.150Z,6.00
2022-11-19T17:30:24.178Z,5.90
2022-11-19T17:32:57.621Z,6.00
2022-11-19T17:35:44.587Z,6.00
2022-11-19T17:38:16.266Z,6.00
2022-11-19T17:40:50.561Z,6.00
2022-11-19T17:43:43.372Z,6.00
2022-11-19T17:46:13.188Z,5.90
2022-11-19T17:48:43.261Z,5.90
2022-11-19T17:51:13.031Z,5.90
2022-11-19T17:53:40.952Z,6.00
2022-11-19T17:56:20.148Z,5.90
2022-11-19T17:58:48.615Z,5.90
2022-11-19T18:01:18.849Z,5.90
2022-11-19T18:03:47.575Z,5.90
2022-11-19T18:06:17.698Z,5.90
2022-11-19T18:08:45.081Z,6.00
2022-11-19T18:11:16.664Z,6.00
2022-11-19T18:13:50.068Z,5.90
2022-11-19T18:16:34.152Z,5.90
2022-11-19T18:19:11.089Z,5.90
2022-11-19T18:21:41.030Z,5.90
2022-11-19T18:24:12.446Z,5.80
2022-11-19T18:26:40.772Z,5.90
2022-11-19T18:29:09.572Z,5.80
2022-11-19T18:31:43.415Z,5.80
2022-11-19T18:34:21.345Z,5.70
2022-11-19T18:36:51.576Z,5.70
2022-11-19T18:39:19.018Z,5.70
2022-11-19T18:41:49.268Z,5.70
2022-11-19T18:44:36.094Z,5.70
2022-11-19T18:47:07.414Z,5.70
2022-11-19T18:49:35.132Z,5.60
2022-11-19T18:52:11.408Z,5.50
2022-11-19T18:54:39.566Z,5.50
2022-11-19T18:57:08.866Z,5.50
2022-11-19T18:59:38.318Z,5.40
2022-11-19T19:02:11.925Z,5.40
2022-11-19T19:04:39.666Z,5.30
2022-11-19T19:07:07.684Z,5.20
2022-11-19T19:09:37.394Z,5.20
2022-11-19T19:12:20.520Z,5.10
2022-11-19T19:14:51.584Z,5.10
2022-11-19T19:17:19.865Z,5.10
2022-11-19T19:19:49.081Z,5.10
2022-11-19T19:22:17.134Z,5.10
2022-11-19T19:24:45.572Z,5.20
2022-11-19T19:27:15.659Z,5.20
2022-11-19T19:29:45.566Z,5.20
2022-11-19T19:32:12.692Z,5.20
2022-11-19T19:34:40.881Z,5.10
2022-11-19T19:37:41.813Z,5.10
2022-11-19T19:40:47.233Z,5.10
2022-11-19T19:43:15.684Z,5.10
2022-11-19T19:45:54.562Z,5.10
2022-11-19T19:48:21.793Z,5.10
2022-11-19T19:50:53.081Z,5.10
2022-11-19T19:53:20.643Z,5.00
2022-11-19T19:55:48.966Z,5.00
2022-11-19T19:59:22.305Z,5.00
2022-11-19T20:02:22.354Z,5.00
2022-11-19T20:04:49.617Z,5.00
2022-11-19T20:07:16.658Z,5.00
2022-11-19T20:09:44.992Z,5.00
2022-11-19T20:12:12.639Z,5.00
2022-11-19T20:14:43.388Z,4.90
2022-11-19T20:17:11.592Z,4.90
2022-11-19T20:19:39.821Z,4.90
2022-11-19T20:22:07.774Z,4.80
2022-11-19T20:24:35.826Z,4.80
2022-11-19T20:27:04.658Z,4.80
2022-11-19T20:29:51.628Z,4.70
2022-11-19T20:32:18.741Z,4.70
2022-11-19T20:34:46.902Z,4.60
2022-11-19T20:37:17.675Z,4.60
2022-11-19T20:40:06.410Z,4.50
2022-11-19T20:42:52.994Z,4.50
2022-11-19T20:45:22.083Z,4.40
2022-11-19T20:47:50.769Z,4.40
2022-11-19T20:50:18.945Z,4.40
2022-11-19T20:52:46.694Z,4.40
2022-11-19T20:55:16.645Z,4.40
2022-11-19T20:57:44.761Z,4.30
2022-11-19T21:00:15.472Z,4.30
2022-11-19T21:02:42.271Z,4.30
2022-11-19T21:05:12.180Z,4.30
2022-11-19T21:07:45.851Z,4.20
2022-11-19T21:10:54.195Z,4.10
2022-11-19T21:13:24.196Z,4.10
2022-11-19T21:16:09.033Z,4.10
2022-11-19T21:18:38.436Z,4.00
2022-11-19T21:21:07.504Z,3.90
2022-11-19T21:23:36.743Z,4.00
2022-11-19T21:26:40.726Z,3.90
2022-11-19T21:29:08.773Z,4.00
2022-11-19T21:31:42.163Z,4.00
2022-11-19T21:34:17.983Z,4.00
2022-11-19T21:36:47.466Z,4.00
2022-11-19T21:39:16.755Z,4.10
2022-11-19T21:41:46.855Z,4.10
2022-11-19T21:44:19.937Z,4.10
2022-11-19T21:46:49.663Z,4.10
2022-11-19T21:49:41.136Z,4.10
2022-11-19T21:53:27.272Z,4.10
2022-11-19T22:00:31.599Z,4.10
2022-11-19T22:02:58.730Z,4.00
2022-11-19T22:09:49.928Z,3.90
2022-11-19T22:16:44.940Z,3.90
2022-11-19T22:19:15.037Z,3.90
2022-11-19T22:21:43.733Z,3.80
2022-11-19T22:24:28.930Z,3.80
2022-11-19T22:26:57.044Z,3.80
2022-11-19T22:29:25.372Z,3.70
2022-11-19T22:31:53.521Z,3.70
2022-11-19T22:34:21.518Z,3.70
2022-11-19T22:36:49.881Z,3.70
2022-11-19T22:39:18.574Z,3.60
2022-11-19T22:41:49.917Z,3.60
2022-11-19T22:44:20.014Z,3.60
2022-11-19T22:46:50.253Z,3.70
2022-11-19T22:49:22.338Z,3.70
2022-11-19T22:51:51.020Z,3.80
2022-11-19T22:54:20.851Z,3.80
2022-11-19T22:56:49.027Z,3.90
2022-11-19T22:59:19.324Z,3.90
2022-11-19T23:01:47.462Z,4.00
2022-11-19T23:04:15.746Z,4.00
2022-11-19T23:06:43.698Z,4.10
2022-11-19T23:09:16.156Z,4.10
2022-11-19T23:12:04.177Z,4.20
2022-11-19T23:14:36.156Z,4.30
2022-11-19T23:17:04.765Z,4.30
2022-11-19T23:19:37.179Z,4.40
2022-11-19T23:22:07.059Z,4.50
2022-11-19T23:24:35.215Z,4.50
2022-11-19T23:27:06.863Z,4.50
2022-11-19T23:29:34.983Z,4.50
2022-11-19T23:32:03.373Z,4.60
2022-11-19T23:34:33.323Z,4.60
2022-11-19T23:37:08.189Z,4.60
2022-11-19T23:39:36.043Z,4.60
2022-11-19T23:42:04.777Z,4.60
2022-11-19T23:44:35.965Z,4.70
2022-11-19T23:47:06.655Z,4.70
2022-11-19T23:49:36.294Z,4.70
2022-11-19T23:52:05.898Z,4.80
2022-11-19T23:54:35.472Z,4.80
2022-11-19T23:57:05.103Z,4.80
2022-11-19T23:59:34.984Z,4.80
